createdAt,value
2023-03-27T00:02:11.772Z,11.70
2023-03-27T00:04:41.300Z,11.60
2023-03-27T00:07:09.283Z,11.60
2023-03-27T00:09:37.523Z,11.60
2023-03-27T00:12:05.957Z,11.60
2023-03-27T00:14:33.252Z,11.60
2023-03-27T00:17:00.497Z,11.60
2023-03-27T00:19:30.859Z,11.60
2023-03-27T00:21:57.971Z,11.60
2023-03-27T00:24:25.141Z,11.60
2023-03-27T00:26:52.796Z,11.60
2023-03-27T00:29:20.069Z,11.60
2023-03-27T00:31:47.409Z,11.50
2023-03-27T00:34:14.779Z,11.50
2023-03-27T00:36:43.827Z,11.50
2023-03-27T00:39:11.336Z,11.50
2023-03-27T00:41:40.103Z,11.50
2023-03-27T00:44:31.421Z,11.50
2023-03-27T00:46:59.560Z,11.50
2023-03-27T00:49:30.794Z,11.50
2023-03-27T00:52:00.103Z,11.50
2023-03-27T00:54:33.079Z,11.50
2023-03-27T00:57:05.408Z,11.50
2023-03-27T00:59:36.812Z,11.40
2023-03-27T01:02:05.147Z,11.40
2023-03-27T01:04:36.013Z,11.40
2023-03-27T01:07:05.545Z,11.40
2023-03-27T01:09:33.574Z,11.40
2023-03-27T01:12:22.090Z,11.30
2023-03-27T01:15:15.891Z,11.30
2023-03-27T01:18:21.093Z,11.30
2023-03-27T01:21:14.769Z,11.30
2023-03-27T01:24:11.633Z,11.30
2023-03-27T01:27:00.179Z,11.30
2023-03-27T01:29:28.172Z,11.20
2023-03-27T01:32:13.189Z,11.20
2023-03-27T01:35:03.320Z,11.20
2023-03-27T01:38:04.565Z,11.10
2023-03-27T01:40:54.279Z,11.20
2023-03-27T01:43:41.684Z,11.10
2023-03-27T01:46:27.028Z,11.10
2023-03-27T01:49:03.018Z,11.20
2023-03-27T01:51:36.935Z,11.10
2023-03-27T01:54:27.744Z,11.20
2023-03-27T01:57:04.246Z,11.10
2023-03-27T01:59:36.478Z,11.10
2023-03-27T02:02:10.427Z,11.10
2023-03-27T02:04:57.772Z,11.10
2023-03-27T02:07:33.679Z,11.10
2023-03-27T02:10:06.743Z,11.10
2023-03-27T02:12:38.094Z,11.10
2023-03-27T02:15:23.697Z,11.00
2023-03-27T02:18:04.850Z,11.00
2023-03-27T02:20:37.460Z,11.00
2023-03-27T02:23:05.076Z,10.90
2023-03-27T02:25:34.136Z,10.90
2023-03-27T02:28:24.201Z,10.90
2023-03-27T02:31:32.218Z,10.90
2023-03-27T02:34:38.746Z,10.70
2023-03-27T02:37:33.125Z,10.70
2023-03-27T02:40:11.789Z,10.70
2023-03-27T02:42:57.399Z,10.60
2023-03-27T02:45:31.799Z,10.60
2023-03-27T02:48:09.646Z,10.60
2023-03-27T02:50:47.082Z,10.60
2023-03-27T02:53:19.344Z,10.60
2023-03-27T02:55:52.979Z,10.60
2023-03-27T02:58:27.226Z,10.60
2023-03-27T03:00:55.226Z,10.50
2023-03-27T03:03:43.163Z,10.50
2023-03-27T03:06:11.428Z,10.40
2023-03-27T03:08:39.407Z,10.40
2023-03-27T03:11:13.673Z,10.30
2023-03-27T03:13:42.124Z,10.30
2023-03-27T03:16:10.316Z,10.30
2023-03-27T03:18:37.544Z,10.30
2023-03-27T03:21:06.258Z,10.20
2023-03-27T03:23:34.199Z,10.20
2023-03-27T03:26:02.983Z,10.10
2023-03-27T03:28:30.367Z,10.10
2023-03-27T03:30:59.251Z,10.10
2023-03-27T03:33:28.238Z,10.10
2023-03-27T03:36:00.810Z,10.10
2023-03-27T03:38:29.939Z,10.00
2023-03-27T03:41:05.602Z,10.00
2023-03-27T03:43:34.226Z,10.00
2023-03-27T03:46:01.530Z,10.00
2023-03-27T03:48:28.772Z,10.00
2023-03-27T03:50:56.481Z,10.00
2023-03-27T03:53:24.031Z,10.00
2023-03-27T03:55:55.862Z,10.00
2023-03-27T03:58:34.573Z,9.90
2023-03-27T04:01:03.053Z,9.90
2023-03-27T04:03:33.642Z,9.80
2023-03-27T04:06:01.548Z,9.80
2023-03-27T04:08:28.781Z,9.80
2023-03-27T04:10:56.374Z,9.80
2023-03-27T04:13:24.762Z,9.80
2023-03-27T04:15:52.895Z,9.80
2023-03-27T04:18:20.542Z,9.80
2023-03-27T04:20:51.445Z,9.80
2023-03-27T04:23:19.127Z,9.70
2023-03-27T04:25:48.117Z,9.60
2023-03-27T04:28:18.135Z,9.60
2023-03-27T04:30:50.579Z,9.60
2023-03-27T04:33:20.926Z,9.50
2023-03-27T04:36:06.851Z,9.60
2023-03-27T04:38:37.150Z,9.50
2023-03-27T04:41:06.652Z,9.50
2023-03-27T04:43:37.031Z,9.50
2023-03-27T04:46:07.711Z,9.50
2023-03-27T04:48:39.328Z,9.60
2023-03-27T04:51:09.616Z,9.60
2023-03-27T04:53:38.289Z,9.50
2023-03-27T04:56:06.854Z,9.50
2023-03-27T04:58:37.160Z,9.50
2023-03-27T05:01:11.113Z,9.50
2023-03-27T05:03:41.751Z,9.50
2023-03-27T05:06:10.277Z,9.50
2023-03-27T05:08:37.524Z,9.50
2023-03-27T05:11:08.974Z,9.50
2023-03-27T05:13:36.474Z,9.50
2023-03-27T05:16:05.114Z,9.60
2023-03-27T05:18:32.402Z,9.60
2023-03-27T05:21:00.164Z,9.70
2023-03-27T05:23:27.902Z,9.70
2023-03-27T05:25:59.881Z,9.80
2023-03-27T05:28:29.694Z,9.80
2023-03-27T05:30:57.887Z,9.80
2023-03-27T05:33:25.914Z,9.90
2023-03-27T05:35:53.327Z,9.90
2023-03-27T05:38:22.907Z,9.90
2023-03-27T05:40:52.649Z,10.00
2023-03-27T05:43:19.886Z,10.00
2023-03-27T05:45:47.441Z,10.10
2023-03-27T05:48:14.802Z,9.90
2023-03-27T05:50:44.471Z,10.00
2023-03-27T05:53:14.096Z,10.00
2023-03-27T05:55:41.942Z,9.90
2023-03-27T05:58:11.999Z,9.90
2023-03-27T06:00:45.475Z,9.90
2023-03-27T06:03:15.529Z,9.90
2023-03-27T06:05:44.781Z,9.90
2023-03-27T06:08:12.132Z,10.00
2023-03-27T06:10:43.932Z,10.00
2023-03-27T06:13:15.023Z,10.00
2023-03-27T06:15:44.068Z,10.00
2023-03-27T06:18:11.829Z,9.90
2023-03-27T06:20:40.288Z,9.90
2023-03-27T06:23:08.292Z,9.90
2023-03-27T06:25:37.151Z,10.00
2023-03-27T06:28:08.408Z,10.00
2023-03-27T06:30:40.018Z,10.10
2023-03-27T06:33:10.229Z,10.10
2023-03-27T06:35:52.677Z,10.10
2023-03-27T06:38:21.259Z,10.10
2023-03-27T06:40:48.583Z,10.10
2023-03-27T06:43:19.067Z,10.10
2023-03-27T06:45:49.305Z,10.10
2023-03-27T06:48:24.434Z,10.10
2023-03-27T06:50:53.465Z,10.10
2023-03-27T06:55:52.833Z,10.10
2023-03-27T06:58:20.119Z,10.10
2023-03-27T07:00:50.376Z,10.10
2023-03-27T07:03:19.538Z,10.10
2023-03-27T07:05:46.936Z,10.20
2023-03-27T07:10:56.291Z,10.20
2023-03-27T07:13:27.681Z,10.30
2023-03-27T07:15:55.224Z,10.30
2023-03-27T07:18:22.803Z,10.40
2023-03-27T07:20:51.293Z,10.40
2023-03-27T07:23:18.560Z,10.40
2023-03-27T07:25:46.021Z,10.40
2023-03-27T07:28:17.317Z,10.40
2023-03-27T07:30:45.034Z,10.40
2023-03-27T07:33:14.609Z,10.40
2023-03-27T07:35:47.715Z,10.40
2023-03-27T07:38:20.010Z,10.50
2023-03-27T07:40:51.257Z,10.50
2023-03-27T07:43:19.490Z,10.50
2023-03-27T07:45:46.683Z,10.50
2023-03-27T07:48:19.101Z,10.50
2023-03-27T07:50:49.657Z,10.50
2023-03-27T07:53:33.975Z,10.60
2023-03-27T07:56:02.799Z,10.60
2023-03-27T07:58:31.765Z,10.50
2023-03-27T08:01:02.857Z,10.40
2023-03-27T08:03:31.838Z,10.30
2023-03-27T08:06:00.973Z,10.40
2023-03-27T08:08:29.115Z,10.40
2023-03-27T08:10:57.270Z,10.50
2023-03-27T08:13:26.255Z,10.50
2023-03-27T08:16:08.070Z,10.60
2023-03-27T08:18:36.563Z,10.60
2023-03-27T08:21:06.790Z,10.60
2023-03-27T08:23:34.616Z,10.80
2023-03-27T08:26:04.989Z,10.80
2023-03-27T08:28:35.050Z,10.90
2023-03-27T08:31:12.590Z,11.00
2023-03-27T08:33:43.740Z,11.00
2023-03-27T08:36:11.851Z,11.00
2023-03-27T08:38:39.699Z,11.00
2023-03-27T08:41:09.270Z,11.00
2023-03-27T08:43:44.650Z,11.10
2023-03-27T08:46:36.775Z,11.20
2023-03-27T08:49:17.437Z,11.20
2023-03-27T08:52:08.832Z,11.20
2023-03-27T08:54:38.313Z,11.30
2023-03-27T08:57:23.751Z,11.30
2023-03-27T09:00:01.175Z,11.40
2023-03-27T09:02:48.611Z,11.50
2023-03-27T09:05:35.032Z,11.60
2023-03-27T09:08:05.528Z,11.70
2023-03-27T09:10:55.463Z,11.70
2023-03-27T09:13:34.196Z,11.90
2023-03-27T09:16:11.280Z,12.00
2023-03-27T09:18:41.047Z,12.30
2023-03-27T09:21:18.028Z,12.40
2023-03-27T09:23:55.848Z,12.60
2023-03-27T09:26:29.838Z,12.90
2023-03-27T09:29:34.815Z,13.10
2023-03-27T09:32:19.267Z,13.20
2023-03-27T09:34:48.233Z,13.30
2023-03-27T09:37:17.671Z,13.60
2023-03-27T09:39:52.964Z,13.70
2023-03-27T09:42:41.335Z,13.90
2023-03-27T09:45:14.665Z,13.60
2023-03-27T09:48:02.302Z,13.40
2023-03-27T09:50:53.443Z,13.30
2023-03-27T09:53:23.622Z,13.10
2023-03-27T09:56:16.300Z,12.90
2023-03-27T09:58:49.157Z,12.80
2023-03-27T10:01:35.559Z,12.60
2023-03-27T10:04:16.354Z,12.40
2023-03-27T10:07:05.694Z,12.40
2023-03-27T10:09:35.556Z,12.40
2023-03-27T10:12:22.976Z,12.10
2023-03-27T10:14:52.777Z,11.70
2023-03-27T10:17:28.104Z,11.20
2023-03-27T10:20:04.893Z,10.80
2023-03-27T10:22:38.524Z,10.60
2023-03-27T10:25:32.519Z,10.40
2023-03-27T10:28:17.622Z,10.30
2023-03-27T10:30:45.351Z,10.10
2023-03-27T10:33:12.752Z,9.90
2023-03-27T10:35:44.226Z,9.60
2023-03-27T10:38:22.609Z,9.40
2023-03-27T10:40:51.790Z,9.30
2023-03-27T10:43:28.686Z,9.20
2023-03-27T10:46:00.651Z,8.90
2023-03-27T10:48:49.718Z,8.90
2023-03-27T10:51:46.810Z,8.80
2023-03-27T10:54:42.985Z,8.60
2023-03-27T10:57:30.799Z,8.30
2023-03-27T11:00:21.426Z,8.10
2023-03-27T11:03:16.787Z,8.10
2023-03-27T11:05:51.034Z,8.00
2023-03-27T11:08:43.465Z,7.70
2023-03-27T11:11:27.072Z,7.70
2023-03-27T11:13:59.670Z,7.60
2023-03-27T11:16:37.425Z,7.50
2023-03-27T11:19:36.060Z,7.70
2023-03-27T11:22:27.339Z,7.80
2023-03-27T11:25:03.401Z,7.80
2023-03-27T11:27:45.905Z,7.80
2023-03-27T11:30:56.240Z,8.00
2023-03-27T11:33:34.280Z,8.00
2023-03-27T11:36:27.146Z,8.20
2023-03-27T11:39:33.201Z,8.20
2023-03-27T11:42:30.573Z,8.10
2023-03-27T11:44:59.227Z,8.10
2023-03-27T11:47:52.118Z,8.30
2023-03-27T11:50:41.369Z,8.40
2023-03-27T11:53:24.370Z,8.50
2023-03-27T11:56:19.450Z,8.40
2023-03-27T11:59:05.399Z,8.30
2023-03-27T12:01:40.082Z,8.30
2023-03-27T12:04:11.332Z,8.20
2023-03-27T12:06:51.320Z,8.00
2023-03-27T12:09:51.211Z,8.00
2023-03-27T12:12:41.420Z,7.80
2023-03-27T12:15:49.293Z,7.70
2023-03-27T12:18:39.777Z,7.70
2023-03-27T12:21:08.848Z,7.80
2023-03-27T12:23:47.512Z,7.70
2023-03-27T12:26:33.582Z,7.50
2023-03-27T12:29:22.524Z,7.20
2023-03-27T12:32:42.504Z,7.10
2023-03-27T12:35:21.615Z,6.70
2023-03-27T12:38:02.270Z,6.30
2023-03-27T12:40:37.800Z,6.30
2023-03-27T12:43:24.913Z,6.20
2023-03-27T12:46:24.279Z,5.90
2023-03-27T12:48:54.971Z,5.60
2023-03-27T12:51:54.401Z,5.30
2023-03-27T12:54:32.909Z,5.20
2023-03-27T12:57:06.841Z,5.10
2023-03-27T12:59:59.214Z,5.00
2023-03-27T13:02:42.749Z,4.80
2023-03-27T13:05:47.919Z,4.70
2023-03-27T13:08:37.722Z,4.70
2023-03-27T13:11:13.031Z,4.70
2023-03-27T13:14:13.130Z,4.70
2023-03-27T13:16:43.547Z,4.70
2023-03-27T13:19:39.292Z,4.90
2023-03-27T13:22:37.071Z,5.10
2023-03-27T13:25:45.123Z,5.10
2023-03-27T13:28:32.738Z,5.00
2023-03-27T13:31:06.890Z,4.80
2023-03-27T13:33:35.908Z,4.70
2023-03-27T13:36:22.946Z,4.60
2023-03-27T13:39:20.001Z,4.70
2023-03-27T13:41:47.453Z,4.70
2023-03-27T13:44:22.506Z,4.90
2023-03-27T13:47:34.272Z,5.00
2023-03-27T13:50:27.138Z,5.00
2023-03-27T13:53:28.556Z,5.00
2023-03-27T13:56:46.895Z,5.10
2023-03-27T13:59:48.740Z,5.10
2023-03-27T14:02:19.017Z,5.20
2023-03-27T14:05:09.336Z,5.30
2023-03-27T14:07:39.116Z,5.50
2023-03-27T14:10:25.553Z,5.70
2023-03-27T14:13:18.730Z,5.70
2023-03-27T14:15:57.744Z,5.50
2023-03-27T14:19:07.970Z,5.60
2023-03-27T14:21:52.398Z,5.70
2023-03-27T14:24:46.492Z,5.80
2023-03-27T14:27:20.500Z,5.90
2023-03-27T14:29:49.662Z,6.00
2023-03-27T14:32:18.189Z,6.00
2023-03-27T14:34:54.994Z,6.00
2023-03-27T14:37:36.898Z,5.90
2023-03-27T14:40:23.275Z,6.00
2023-03-27T14:42:51.282Z,6.00
2023-03-27T14:45:27.449Z,6.00
2023-03-27T14:47:56.696Z,6.10
2023-03-27T14:50:26.798Z,6.10
2023-03-27T14:52:55.756Z,6.10
2023-03-27T14:55:29.937Z,6.10
2023-03-27T14:58:00.835Z,6.10
2023-03-27T15:00:32.158Z,6.00
2023-03-27T15:03:06.566Z,6.00
2023-03-27T15:05:34.028Z,6.10
2023-03-27T15:08:01.341Z,6.20
2023-03-27T15:10:34.542Z,6.20
2023-03-27T15:13:01.861Z,6.20
2023-03-27T15:15:49.629Z,6.30
2023-03-27T15:18:29.621Z,6.40
2023-03-27T15:21:04.382Z,6.60
2023-03-27T15:23:49.029Z,6.60
2023-03-27T15:26:36.458Z,6.60
2023-03-27T15:29:20.631Z,6.50
2023-03-27T15:31:50.524Z,6.60
2023-03-27T15:35:01.081Z,6.70
2023-03-27T15:37:31.937Z,6.60
2023-03-27T15:40:13.784Z,6.70
2023-03-27T15:43:01.858Z,6.70
2023-03-27T15:45:46.702Z,6.70
2023-03-27T15:48:23.352Z,6.60
2023-03-27T15:51:41.716Z,6.60
2023-03-27T15:54:24.897Z,6.60
2023-03-27T15:57:10.751Z,6.60
2023-03-27T15:59:52.047Z,6.60
2023-03-27T16:02:24.142Z,6.60
2023-03-27T16:04:59.986Z,6.60
2023-03-27T16:07:30.357Z,6.60
2023-03-27T16:10:07.099Z,6.60
2023-03-27T16:12:56.748Z,6.50
2023-03-27T16:15:41.451Z,6.50
2023-03-27T16:18:26.392Z,6.50
2023-03-27T16:20:55.412Z,6.50
2023-03-27T16:23:23.972Z,6.40
2023-03-27T16:25:51.364Z,6.40
2023-03-27T16:28:23.267Z,6.40
2023-03-27T16:31:23.014Z,6.30
2023-03-27T16:33:52.311Z,6.30
2023-03-27T16:36:30.125Z,6.30
2023-03-27T16:38:58.680Z,6.30
2023-03-27T16:41:28.859Z,6.30
2023-03-27T16:43:56.022Z,6.30
2023-03-27T16:46:28.905Z,6.30
2023-03-27T16:48:59.469Z,6.20
2023-03-27T16:51:28.859Z,6.20
2023-03-27T16:53:58.678Z,6.20
2023-03-27T16:56:28.069Z,6.20
2023-03-27T16:58:59.925Z,6.10
2023-03-27T17:01:29.773Z,6.10
2023-03-27T17:04:01.759Z,6.10
2023-03-27T17:06:49.380Z,6.20
2023-03-27T17:09:18.828Z,6.20
2023-03-27T17:11:48.345Z,6.20
2023-03-27T17:14:25.931Z,6.20
2023-03-27T17:16:53.168Z,6.20
2023-03-27T17:19:22.208Z,6.10
2023-03-27T17:21:49.416Z,6.00
2023-03-27T17:24:19.980Z,5.90
2023-03-27T17:26:47.385Z,5.80
2023-03-27T17:29:14.620Z,5.70
2023-03-27T17:31:42.950Z,5.70
2023-03-27T17:34:10.286Z,5.60
2023-03-27T17:36:45.297Z,5.50
2023-03-27T17:39:22.003Z,5.50
2023-03-27T17:41:50.466Z,5.40
2023-03-27T17:44:17.925Z,5.40
2023-03-27T17:46:46.279Z,5.30
2023-03-27T17:49:20.646Z,5.30
2023-03-27T17:51:47.846Z,5.20
2023-03-27T17:54:20.613Z,5.20
2023-03-27T17:56:54.673Z,5.10
2023-03-27T17:59:22.478Z,5.10
2023-03-27T18:02:40.068Z,5.10
2023-03-27T18:05:01.459Z,5.00
2023-03-27T18:07:34.495Z,5.00
2023-03-27T18:10:02.339Z,5.00
2023-03-27T18:12:36.597Z,4.90
2023-03-27T18:15:05.324Z,4.90
2023-03-27T18:17:36.868Z,4.90
2023-03-27T18:20:10.423Z,4.90
2023-03-27T18:22:38.541Z,4.80
2023-03-27T18:25:08.837Z,4.80
2023-03-27T18:27:42.916Z,4.70
2023-03-27T18:30:20.242Z,4.70
2023-03-27T18:32:51.751Z,4.70
2023-03-27T18:35:47.521Z,4.70
2023-03-27T18:38:33.720Z,4.70
2023-03-27T18:41:01.189Z,4.60
2023-03-27T18:43:39.018Z,4.60
2023-03-27T18:46:28.450Z,4.60
2023-03-27T18:48:55.953Z,4.60
2023-03-27T18:51:48.333Z,4.50
2023-03-27T18:54:15.957Z,4.50
2023-03-27T18:57:26.848Z,4.50
2023-03-27T18:59:55.401Z,4.50
2023-03-27T19:02:37.774Z,4.50
2023-03-27T19:05:09.547Z,4.40
2023-03-27T19:10:23.050Z,4.40
2023-03-27T19:12:52.526Z,4.30
2023-03-27T19:15:20.583Z,4.30
2023-03-27T19:17:52.008Z,4.30
2023-03-27T19:20:23.101Z,4.30
2023-03-27T19:22:53.802Z,4.30
2023-03-27T19:25:22.643Z,4.30
2023-03-27T19:27:53.069Z,4.30
2023-03-27T19:30:21.448Z,4.20
2023-03-27T19:32:50.544Z,4.20
2023-03-27T19:35:17.996Z,4.20
2023-03-27T19:37:45.201Z,4.20
2023-03-27T19:40:13.248Z,4.20
2023-03-27T19:42:40.534Z,4.20
2023-03-27T19:45:08.773Z,4.20
2023-03-27T19:47:37.830Z,4.20
2023-03-27T19:50:08.556Z,4.20
2023-03-27T19:52:36.081Z,4.20
2023-03-27T19:55:04.074Z,4.10
2023-03-27T19:57:31.435Z,4.10
2023-03-27T19:59:58.525Z,4.10
2023-03-27T20:02:28.927Z,4.10
2023-03-27T20:04:56.079Z,4.10
2023-03-27T20:07:25.275Z,4.10
2023-03-27T20:09:52.390Z,4.10
2023-03-27T20:12:19.884Z,4.10
2023-03-27T20:15:02.827Z,4.10
2023-03-27T20:17:34.507Z,4.00
2023-03-27T20:20:05.765Z,4.00
2023-03-27T20:22:36.589Z,4.00
2023-03-27T20:25:08.178Z,4.00
2023-03-27T20:27:38.392Z,3.90
2023-03-27T20:30:06.758Z,3.90
2023-03-27T20:32:33.995Z,3.90
2023-03-27T20:35:07.340Z,3.90
2023-03-27T20:37:42.637Z,3.90
2023-03-27T20:40:11.772Z,3.90
2023-03-27T20:42:51.382Z,3.90
2023-03-27T20:45:21.283Z,3.80
2023-03-27T20:47:48.561Z,3.80
2023-03-27T20:50:18.815Z,3.80
2023-03-27T20:52:47.779Z,3.80
2023-03-27T20:55:30.613Z,3.70
2023-03-27T20:58:00.899Z,3.70
2023-03-27T21:00:30.757Z,3.70
2023-03-27T21:03:02.725Z,3.70
2023-03-27T21:05:30.097Z,3.60
2023-03-27T21:07:57.196Z,3.60
2023-03-27T21:10:25.001Z,3.60
2023-03-27T21:12:53.756Z,3.50
2023-03-27T21:15:20.871Z,3.50
2023-03-27T21:17:48.091Z,3.50
2023-03-27T21:20:15.601Z,3.50
2023-03-27T21:22:42.726Z,3.50
2023-03-27T21:25:09.927Z,3.50
2023-03-27T21:27:37.190Z,3.50
2023-03-27T21:30:05.942Z,3.50
2023-03-27T21:32:33.129Z,3.50
2023-03-27T21:35:00.282Z,3.50
2023-03-27T21:37:27.411Z,3.50
2023-03-27T21:39:54.490Z,3.50
2023-03-27T21:42:21.966Z,3.50
2023-03-27T21:44:53.707Z,3.40
2023-03-27T21:47:22.347Z,3.50
2023-03-27T21:49:49.441Z,3.50
2023-03-27T21:52:16.766Z,3.50
2023-03-27T21:54:53.150Z,3.50
2023-03-27T21:57:29.411Z,3.50
2023-03-27T21:59:56.517Z,3.50
2023-03-27T22:02:23.845Z,3.40
2023-03-27T22:04:51.083Z,3.40
2023-03-27T22:07:18.260Z,3.40
2023-03-27T22:09:45.467Z,3.40
2023-03-27T22:12:13.441Z,3.40
2023-03-27T22:14:40.516Z,3.30
2023-03-27T22:17:07.836Z,3.30
2023-03-27T22:19:35.031Z,3.30
2023-03-27T22:22:02.331Z,3.30
2023-03-27T22:24:29.430Z,3.20
2023-03-27T22:26:57.069Z,3.20
2023-03-27T22:29:24.244Z,3.20
2023-03-27T22:31:51.915Z,3.20
2023-03-27T22:34:19.056Z,3.20
2023-03-27T22:36:46.481Z,3.10
2023-03-27T22:39:13.641Z,3.10
2023-03-27T22:41:40.931Z,3.10
2023-03-27T22:44:08.071Z,3.10
2023-03-27T22:46:35.605Z,3.10
2023-03-27T22:49:02.767Z,3.10
2023-03-27T22:51:31.117Z,3.10
2023-03-27T22:53:58.285Z,3.00
2023-03-27T22:56:25.603Z,3.00
2023-03-27T22:58:52.711Z,3.00
2023-03-27T23:01:19.902Z,3.00
2023-03-27T23:03:47.163Z,2.90
2023-03-27T23:06:20.334Z,2.90
2023-03-27T23:08:50.951Z,2.90
2023-03-27T23:11:18.650Z,2.90
2023-03-27T23:13:46.022Z,2.90
2023-03-27T23:16:13.327Z,2.90
2023-03-27T23:18:40.790Z,2.90
2023-03-27T23:21:14.112Z,2.90
2023-03-27T23:23:41.320Z,2.80
2023-03-27T23:26:09.525Z,2.80
2023-03-27T23:28:40.128Z,2.80
2023-03-27T23:31:13.570Z,2.80
2023-03-27T23:33:43.482Z,2.80
2023-03-27T23:36:16.523Z,2.80
2023-03-27T23:38:43.810Z,2.80
2023-03-27T23:41:13.786Z,2.80
2023-03-27T23:43:41.191Z,2.70
2023-03-27T23:46:11.343Z,2.70
2023-03-27T23:48:40.364Z,2.70
2023-03-27T23:51:08.758Z,2.60
2023-03-27T23:53:36.660Z,2.60
2023-03-27T23:56:04.142Z,2.50
2023-03-27T23:58:34.642Z,2.60
